sensor_id;sensor_type;location;lat;lon;timestamp;temperature;humidity
52267;DHT22;38223;50.940;4.034;2023-07-13T00:01:37;18.60;99.90
52267;DHT22;38223;50.940;4.034;2023-07-13T00:04:11;18.40;99.90
52267;DHT22;38223;50.940;4.034;2023-07-13T00:06:43;18.20;99.90
52267;DHT22;38223;50.940;4.034;2023-07-13T00:09:16;18.40;99.90
52267;DHT22;38223;50.940;4.034;2023-07-13T00:11:50;18.50;99.90
52267;DHT22;38223;50.940;4.034;2023-07-13T00:14:21;18.50;99.90
52267;DHT22;38223;50.940;4.034;2023-07-13T00:16:53;18.50;99.90
52267;DHT22;38223;50.940;4.034;2023-07-13T00:19:28;18.50;99.90
52267;DHT22;38223;50.940;4.034;2023-07-13T00:21:57;18.40;99.90
52267;DHT22;38223;50.940;4.034;2023-07-13T00:24:27;18.40;99.90
52267;DHT22;38223;50.940;4.034;2023-07-13T00:27:00;18.40;99.90
52267;DHT22;38223;50.940;4.034;2023-07-13T00:29:34;18.30;99.90
52267;DHT22;38223;50.940;4.034;2023-07-13T00:32:08;18.20;99.90
52267;DHT22;38223;50.940;4.034;2023-07-13T00:34:43;18.10;99.90
52267;DHT22;38223;50.940;4.034;2023-07-13T00:37:12;18.10;99.90
52267;DHT22;38223;50.940;4.034;2023-07-13T00:39:47;18.00;99.90
52267;DHT22;38223;50.940;4.034;2023-07-13T00:42:16;18.30;99.90
52267;DHT22;38223;50.940;4.034;2023-07-13T00:47:45;18.30;99.90
52267;DHT22;38223;50.940;4.034;2023-07-13T00:50:18;18.40;99.90
52267;DHT22;38223;50.940;4.034;2023-07-13T00:52:53;18.40;99.90
52267;DHT22;38223;50.940;4.034;2023-07-13T00:55:26;18.30;99.90
52267;DHT22;38223;50.940;4.034;2023-07-13T00:57:55;18.30;99.90
52267;DHT22;38223;50.940;4.034;2023-07-13T01:00:30;18.10;99.90
52267;DHT22;38223;50.940;4.034;2023-07-13T01:03:01;18.20;99.90
52267;DHT22;38223;50.940;4.034;2023-07-13T01:05:33;18.20;99.90
52267;DHT22;38223;50.940;4.034;2023-07-13T01:08:08;18.10;99.90
52267;DHT22;38223;50.940;4.034;2023-07-13T01:10:41;18.30;99.90
52267;DHT22;38223;50.940;4.034;2023-07-13T01:13:18;18.30;99.90
52267;DHT22;38223;50.940;4.034;2023-07-13T01:15:51;18.20;99.90
52267;DHT22;38223;50.940;4.034;2023-07-13T01:18:26;18.30;99.90
52267;DHT22;38223;50.940;4.034;2023-07-13T01:21:00;18.30;99.90
52267;DHT22;38223;50.940;4.034;2023-07-13T01:23:35;18.30;99.90
52267;DHT22;38223;50.940;4.034;2023-07-13T01:26:04;18.50;99.90
52267;DHT22;38223;50.940;4.034;2023-07-13T01:28:38;18.40;99.90
52267;DHT22;38223;50.940;4.034;2023-07-13T01:31:13;18.40;99.90
52267;DHT22;38223;50.940;4.034;2023-07-13T01:33:47;18.40;99.90
52267;DHT22;38223;50.940;4.034;2023-07-13T01:36:20;18.50;99.90
52267;DHT22;38223;50.940;4.034;2023-07-13T01:38:51;18.50;99.90
52267;DHT22;38223;50.940;4.034;2023-07-13T01:41:25;18.30;99.90
52267;DHT22;38223;50.940;4.034;2023-07-13T01:43:54;18.20;99.90
52267;DHT22;38223;50.940;4.034;2023-07-13T01:46:24;18.20;99.90
52267;DHT22;38223;50.940;4.034;2023-07-13T01:48:57;18.20;99.90
52267;DHT22;38223;50.940;4.034;2023-07-13T01:51:27;18.20;99.90
52267;DHT22;38223;50.940;4.034;2023-07-13T01:54:02;18.30;99.90
52267;DHT22;38223;50.940;4.034;2023-07-13T01:56:38;18.20;99.90
52267;DHT22;38223;50.940;4.034;2023-07-13T01:59:10;18.20;99.90
52267;DHT22;38223;50.940;4.034;2023-07-13T02:01:40;18.30;99.90
52267;DHT22;38223;50.940;4.034;2023-07-13T02:04:10;18.00;99.90
52267;DHT22;38223;50.940;4.034;2023-07-13T02:06:44;18.10;99.90
52267;DHT22;38223;50.940;4.034;2023-07-13T02:09:17;18.30;99.90
52267;DHT22;38223;50.940;4.034;2023-07-13T02:11:51;18.30;99.90
52267;DHT22;38223;50.940;4.034;2023-07-13T02:14:20;18.10;99.90
52267;DHT22;38223;50.940;4.034;2023-07-13T02:19:42;18.10;99.90
52267;DHT22;38223;50.940;4.034;2023-07-13T02:22:16;18.00;99.90
52267;DHT22;38223;50.940;4.034;2023-07-13T02:24:45;18.00;99.90
52267;DHT22;38223;50.940;4.034;2023-07-13T02:27:20;17.90;99.90
52267;DHT22;38223;50.940;4.034;2023-07-13T02:29:49;17.80;99.90
52267;DHT22;38223;50.940;4.034;2023-07-13T02:32:22;17.70;99.90
52267;DHT22;38223;50.940;4.034;2023-07-13T02:34:56;17.70;99.90
52267;DHT22;38223;50.940;4.034;2023-07-13T02:37:29;17.60;99.90
52267;DHT22;38223;50.940;4.034;2023-07-13T02:40:04;17.50;99.90
52267;DHT22;38223;50.940;4.034;2023-07-13T02:42:36;17.40;99.90
52267;DHT22;38223;50.940;4.034;2023-07-13T02:45:10;17.30;99.90
52267;DHT22;38223;50.940;4.034;2023-07-13T02:47:47;17.40;99.90
52267;DHT22;38223;50.940;4.034;2023-07-13T02:50:16;17.40;99.90
52267;DHT22;38223;50.940;4.034;2023-07-13T02:52:47;17.50;99.90
52267;DHT22;38223;50.940;4.034;2023-07-13T02:55:21;17.50;99.90
52267;DHT22;38223;50.940;4.034;2023-07-13T02:57:50;17.50;99.90
52267;DHT22;38223;50.940;4.034;2023-07-13T03:00:21;17.50;99.90
52267;DHT22;38223;50.940;4.034;2023-07-13T03:02:56;17.50;99.90
52267;DHT22;38223;50.940;4.034;2023-07-13T03:05:31;17.40;99.90
52267;DHT22;38223;50.940;4.034;2023-07-13T03:08:01;17.40;99.90
52267;DHT22;38223;50.940;4.034;2023-07-13T03:10:34;17.40;99.90
52267;DHT22;38223;50.940;4.034;2023-07-13T03:13:05;17.30;99.90
52267;DHT22;38223;50.940;4.034;2023-07-13T03:15:42;17.20;99.90
52267;DHT22;38223;50.940;4.034;2023-07-13T03:18:11;17.20;99.90
52267;DHT22;38223;50.940;4.034;2023-07-13T03:20:41;17.10;99.90
52267;DHT22;38223;50.940;4.034;2023-07-13T03:23:15;17.10;99.90
52267;DHT22;38223;50.940;4.034;2023-07-13T03:25:43;17.00;99.90
52267;DHT22;38223;50.940;4.034;2023-07-13T03:28:17;16.90;99.90
52267;DHT22;38223;50.940;4.034;2023-07-13T03:30:52;16.90;99.90
52267;DHT22;38223;50.940;4.034;2023-07-13T03:33:20;16.90;99.90
52267;DHT22;38223;50.940;4.034;2023-07-13T03:35:55;16.90;99.90
52267;DHT22;38223;50.940;4.034;2023-07-13T03:38:26;16.90;99.90
52267;DHT22;38223;50.940;4.034;2023-07-13T03:41:01;16.90;99.90
52267;DHT22;38223;50.940;4.034;2023-07-13T03:43:30;16.90;99.90
52267;DHT22;38223;50.940;4.034;2023-07-13T03:46:04;17.00;99.90
52267;DHT22;38223;50.940;4.034;2023-07-13T03:48:36;17.10;99.90
52267;DHT22;38223;50.940;4.034;2023-07-13T03:51:10;17.00;99.90
52267;DHT22;38223;50.940;4.034;2023-07-13T03:53:44;16.90;99.90
52267;DHT22;38223;50.940;4.034;2023-07-13T03:56:19;16.90;99.90
52267;DHT22;38223;50.940;4.034;2023-07-13T03:59:07;16.90;99.90
52267;DHT22;38223;50.940;4.034;2023-07-13T04:01:40;17.00;99.90
52267;DHT22;38223;50.940;4.034;2023-07-13T04:04:18;16.90;99.90
52267;DHT22;38223;50.940;4.034;2023-07-13T04:06:47;16.90;99.90
52267;DHT22;38223;50.940;4.034;2023-07-13T04:09:22;17.00;99.90
52267;DHT22;38223;50.940;4.034;2023-07-13T04:15:01;16.90;99.90
52267;DHT22;38223;50.940;4.034;2023-07-13T04:17:31;16.80;99.90
52267;DHT22;38223;50.940;4.034;2023-07-13T04:20:09;16.80;99.90
52267;DHT22;38223;50.940;4.034;2023-07-13T04:22:41;16.90;99.90
52267;DHT22;38223;50.940;4.034;2023-07-13T04:25:16;16.90;99.90
52267;DHT22;38223;50.940;4.034;2023-07-13T04:27:45;16.90;99.90
52267;DHT22;38223;50.940;4.034;2023-07-13T04:30:20;17.00;99.90
52267;DHT22;38223;50.940;4.034;2023-07-13T04:32:51;16.90;99.90
52267;DHT22;38223;50.940;4.034;2023-07-13T04:35:25;17.00;99.90
52267;DHT22;38223;50.940;4.034;2023-07-13T04:37:54;17.00;99.90
52267;DHT22;38223;50.940;4.034;2023-07-13T04:40:28;17.00;99.90
52267;DHT22;38223;50.940;4.034;2023-07-13T04:42:57;17.10;99.90
52267;DHT22;38223;50.940;4.034;2023-07-13T04:45:32;17.00;99.90
52267;DHT22;38223;50.940;4.034;2023-07-13T04:48:01;17.00;99.90
52267;DHT22;38223;50.940;4.034;2023-07-13T04:50:36;17.00;99.90
52267;DHT22;38223;50.940;4.034;2023-07-13T04:53:06;17.00;99.90
52267;DHT22;38223;50.940;4.034;2023-07-13T04:55:41;16.90;99.90
52267;DHT22;38223;50.940;4.034;2023-07-13T04:58:12;16.90;99.90
52267;DHT22;38223;50.940;4.034;2023-07-13T05:00:50;16.90;99.90
52267;DHT22;38223;50.940;4.034;2023-07-13T05:03:19;16.90;99.90
52267;DHT22;38223;50.940;4.034;2023-07-13T05:05:59;16.90;99.90
52267;DHT22;38223;50.940;4.034;2023-07-13T05:08:28;16.90;99.90
52267;DHT22;38223;50.940;4.034;2023-07-13T05:11:04;17.00;99.90
52267;DHT22;38223;50.940;4.034;2023-07-13T05:13:32;17.00;99.90
52267;DHT22;38223;50.940;4.034;2023-07-13T05:16:06;17.00;99.90
52267;DHT22;38223;50.940;4.034;2023-07-13T05:18:37;17.00;99.90
52267;DHT22;38223;50.940;4.034;2023-07-13T05:21:14;17.10;99.90
52267;DHT22;38223;50.940;4.034;2023-07-13T05:23:43;17.20;99.90
52267;DHT22;38223;50.940;4.034;2023-07-13T05:26:19;17.20;99.90
52267;DHT22;38223;50.940;4.034;2023-07-13T05:28:50;17.10;99.90
52267;DHT22;38223;50.940;4.034;2023-07-13T05:31:24;17.20;99.90
52267;DHT22;38223;50.940;4.034;2023-07-13T05:33:58;17.30;99.90
52267;DHT22;38223;50.940;4.034;2023-07-13T05:36:28;17.40;99.90
52267;DHT22;38223;50.940;4.034;2023-07-13T05:38:58;17.40;99.90
52267;DHT22;38223;50.940;4.034;2023-07-13T05:41:32;17.40;99.90
52267;DHT22;38223;50.940;4.034;2023-07-13T05:44:02;17.50;99.90
52267;DHT22;38223;50.940;4.034;2023-07-13T05:46:36;17.50;99.90
52267;DHT22;38223;50.940;4.034;2023-07-13T05:49:05;17.60;99.90
52267;DHT22;38223;50.940;4.034;2023-07-13T05:51:42;17.60;99.90
52267;DHT22;38223;50.940;4.034;2023-07-13T05:54:11;17.80;99.90
52267;DHT22;38223;50.940;4.034;2023-07-13T05:56:41;17.80;99.90
52267;DHT22;38223;50.940;4.034;2023-07-13T05:59:15;17.90;99.90
52267;DHT22;38223;50.940;4.034;2023-07-13T06:01:45;17.80;99.90
52267;DHT22;38223;50.940;4.034;2023-07-13T06:04:19;18.00;99.90
52267;DHT22;38223;50.940;4.034;2023-07-13T06:06:49;18.00;99.90
52267;DHT22;38223;50.940;4.034;2023-07-13T06:09:23;18.00;99.90
52267;DHT22;38223;50.940;4.034;2023-07-13T06:11:52;18.20;99.90
52267;DHT22;38223;50.940;4.034;2023-07-13T06:14:27;18.10;99.90
52267;DHT22;38223;50.940;4.034;2023-07-13T06:16:56;17.90;99.90
52267;DHT22;38223;50.940;4.034;2023-07-13T06:19:31;18.10;99.90
52267;DHT22;38223;50.940;4.034;2023-07-13T06:22:00;18.20;99.90
52267;DHT22;38223;50.940;4.034;2023-07-13T06:24:34;18.20;99.90
52267;DHT22;38223;50.940;4.034;2023-07-13T06:27:08;18.30;99.90
52267;DHT22;38223;50.940;4.034;2023-07-13T06:29:39;18.50;99.90
52267;DHT22;38223;50.940;4.034;2023-07-13T06:32:11;18.50;99.90
52267;DHT22;38223;50.940;4.034;2023-07-13T06:34:41;18.50;99.90
52267;DHT22;38223;50.940;4.034;2023-07-13T06:37:15;18.60;99.90
52267;DHT22;38223;50.940;4.034;2023-07-13T06:39:45;18.70;99.90
52267;DHT22;38223;50.940;4.034;2023-07-13T06:42:18;18.70;99.90
52267;DHT22;38223;50.940;4.034;2023-07-13T06:44:50;18.70;99.90
52267;DHT22;38223;50.940;4.034;2023-07-13T06:47:25;18.80;99.90
52267;DHT22;38223;50.940;4.034;2023-07-13T06:49:59;19.00;99.90
52267;DHT22;38223;50.940;4.034;2023-07-13T06:52:35;18.90;99.90
52267;DHT22;38223;50.940;4.034;2023-07-13T06:55:09;18.90;99.90
52267;DHT22;38223;50.940;4.034;2023-07-13T06:57:46;19.10;99.90
52267;DHT22;38223;50.940;4.034;2023-07-13T07:00:16;19.10;99.90
52267;DHT22;38223;50.940;4.034;2023-07-13T07:02:52;19.20;99.90
52267;DHT22;38223;50.940;4.034;2023-07-13T07:05:22;19.10;99.90
52267;DHT22;38223;50.940;4.034;2023-07-13T07:07:58;19.20;99.90
52267;DHT22;38223;50.940;4.034;2023-07-13T07:10:28;19.40;99.90
52267;DHT22;38223;50.940;4.034;2023-07-13T07:13:04;19.40;99.90
52267;DHT22;38223;50.940;4.034;2023-07-13T07:15:38;19.30;99.90
52267;DHT22;38223;50.940;4.034;2023-07-13T07:18:12;19.30;99.90
52267;DHT22;38223;50.940;4.034;2023-07-13T07:20:42;19.30;99.90
52267;DHT22;38223;50.940;4.034;2023-07-13T07:23:16;19.40;99.90
52267;DHT22;38223;50.940;4.034;2023-07-13T07:25:49;19.50;99.90
52267;DHT22;38223;50.940;4.034;2023-07-13T07:28:24;19.60;99.90
52267;DHT22;38223;50.940;4.034;2023-07-13T07:30:57;19.60;99.90
52267;DHT22;38223;50.940;4.034;2023-07-13T07:33:33;19.70;99.90
52267;DHT22;38223;50.940;4.034;2023-07-13T07:36:02;19.50;99.90
52267;DHT22;38223;50.940;4.034;2023-07-13T07:38:37;19.80;99.90
52267;DHT22;38223;50.940;4.034;2023-07-13T07:41:07;19.90;99.90
52267;DHT22;38223;50.940;4.034;2023-07-13T07:43:38;20.00;99.90
52267;DHT22;38223;50.940;4.034;2023-07-13T07:46:15;20.00;99.90
52267;DHT22;38223;50.940;4.034;2023-07-13T07:48:44;20.00;99.90
52267;DHT22;38223;50.940;4.034;2023-07-13T07:51:19;19.90;99.90
52267;DHT22;38223;50.940;4.034;2023-07-13T07:53:52;19.90;99.90
52267;DHT22;38223;50.940;4.034;2023-07-13T07:56:29;20.00;99.90
52267;DHT22;38223;50.940;4.034;2023-07-13T07:58:59;20.20;99.90
52267;DHT22;38223;50.940;4.034;2023-07-13T08:01:32;20.40;99.90
52267;DHT22;38223;50.940;4.034;2023-07-13T08:04:08;20.70;99.90
52267;DHT22;38223;50.940;4.034;2023-07-13T08:06:43;20.70;99.90
52267;DHT22;38223;50.940;4.034;2023-07-13T08:09:17;20.80;99.90
52267;DHT22;38223;50.940;4.034;2023-07-13T08:11:47;20.80;99.90
52267;DHT22;38223;50.940;4.034;2023-07-13T08:14:23;20.70;99.90
52267;DHT22;38223;50.940;4.034;2023-07-13T08:16:52;20.70;99.90
52267;DHT22;38223;50.940;4.034;2023-07-13T08:19:23;20.70;99.90
52267;DHT22;38223;50.940;4.034;2023-07-13T08:21:53;20.60;99.90
52267;DHT22;38223;50.940;4.034;2023-07-13T08:24:24;20.60;99.90
52267;DHT22;38223;50.940;4.034;2023-07-13T08:27:02;20.80;99.90
52267;DHT22;38223;50.940;4.034;2023-07-13T08:29:31;20.90;99.90
52267;DHT22;38223;50.940;4.034;2023-07-13T08:32:05;20.90;99.90
52267;DHT22;38223;50.940;4.034;2023-07-13T08:34:37;20.80;99.90
52267;DHT22;38223;50.940;4.034;2023-07-13T08:37:15;20.70;99.90
52267;DHT22;38223;50.940;4.034;2023-07-13T08:39:47;20.80;99.90
52267;DHT22;38223;50.940;4.034;2023-07-13T08:42:39;21.00;99.90
52267;DHT22;38223;50.940;4.034;2023-07-13T08:45:29;20.90;99.90
52267;DHT22;38223;50.940;4.034;2023-07-13T08:48:01;20.80;99.90
52267;DHT22;38223;50.940;4.034;2023-07-13T08:50:33;20.80;99.90
52267;DHT22;38223;50.940;4.034;2023-07-13T08:53:03;20.90;99.90
52267;DHT22;38223;50.940;4.034;2023-07-13T08:55:38;21.00;99.90
52267;DHT22;38223;50.940;4.034;2023-07-13T08:58:14;21.10;99.90
52267;DHT22;38223;50.940;4.034;2023-07-13T09:01:22;21.30;99.90
52267;DHT22;38223;50.940;4.034;2023-07-13T09:03:28;21.20;99.90
52267;DHT22;38223;50.940;4.034;2023-07-13T09:06:01;21.10;99.90
52267;DHT22;38223;50.940;4.034;2023-07-13T09:08:55;20.90;99.90
52267;DHT22;38223;50.940;4.034;2023-07-13T09:11:40;20.80;99.90
52267;DHT22;38223;50.940;4.034;2023-07-13T09:17:12;20.60;99.90
52267;DHT22;38223;50.940;4.034;2023-07-13T09:19:46;20.60;99.90
52267;DHT22;38223;50.940;4.034;2023-07-13T09:22:19;20.70;99.90
52267;DHT22;38223;50.940;4.034;2023-07-13T09:27:30;21.10;99.90
52267;DHT22;38223;50.940;4.034;2023-07-13T09:30:24;21.30;99.90
52267;DHT22;38223;50.940;4.034;2023-07-13T09:32:54;21.40;99.90
52267;DHT22;38223;50.940;4.034;2023-07-13T09:35:30;21.50;99.90
52267;DHT22;38223;50.940;4.034;2023-07-13T09:38:18;21.50;99.90
52267;DHT22;38223;50.940;4.034;2023-07-13T09:43:24;21.70;99.90
52267;DHT22;38223;50.940;4.034;2023-07-13T09:45:57;21.70;99.90
52267;DHT22;38223;50.940;4.034;2023-07-13T09:48:30;21.70;99.90
52267;DHT22;38223;50.940;4.034;2023-07-13T09:51:01;21.80;99.90
52267;DHT22;38223;50.940;4.034;2023-07-13T09:53:30;21.90;99.90
52267;DHT22;38223;50.940;4.034;2023-07-13T09:56:03;22.10;99.90
52267;DHT22;38223;50.940;4.034;2023-07-13T09:58:36;22.20;99.90
52267;DHT22;38223;50.940;4.034;2023-07-13T10:01:11;22.20;99.90
52267;DHT22;38223;50.940;4.034;2023-07-13T10:03:55;22.30;99.90
52267;DHT22;38223;50.940;4.034;2023-07-13T10:06:33;22.30;99.90
52267;DHT22;38223;50.940;4.034;2023-07-13T10:09:02;22.20;99.90
52267;DHT22;38223;50.940;4.034;2023-07-13T10:11:35;22.30;99.90
52267;DHT22;38223;50.940;4.034;2023-07-13T10:14:16;22.30;99.90
52267;DHT22;38223;50.940;4.034;2023-07-13T10:16:51;22.50;99.90
52267;DHT22;38223;50.940;4.034;2023-07-13T10:19:26;22.60;99.90
52267;DHT22;38223;50.940;4.034;2023-07-13T10:22:01;22.50;99.90
52267;DHT22;38223;50.940;4.034;2023-07-13T10:24:35;22.20;99.90
52267;DHT22;38223;50.940;4.034;2023-07-13T10:27:36;21.90;99.90
52267;DHT22;38223;50.940;4.034;2023-07-13T10:30:21;21.90;99.90
52267;DHT22;38223;50.940;4.034;2023-07-13T10:32:54;21.80;99.90
52267;DHT22;38223;50.940;4.034;2023-07-13T10:35:27;22.00;99.90
52267;DHT22;38223;50.940;4.034;2023-07-13T10:38:10;22.00;99.90
52267;DHT22;38223;50.940;4.034;2023-07-13T10:40:50;22.00;99.90
52267;DHT22;38223;50.940;4.034;2023-07-13T10:43:25;22.20;99.90
52267;DHT22;38223;50.940;4.034;2023-07-13T10:45:57;22.50;99.90
52267;DHT22;38223;50.940;4.034;2023-07-13T10:48:32;22.50;99.90
52267;DHT22;38223;50.940;4.034;2023-07-13T10:51:03;22.50;99.90
52267;DHT22;38223;50.940;4.034;2023-07-13T10:53:39;22.60;99.90
52267;DHT22;38223;50.940;4.034;2023-07-13T10:56:30;22.60;99.90
52267;DHT22;38223;50.940;4.034;2023-07-13T10:59:15;22.60;99.90
52267;DHT22;38223;50.940;4.034;2023-07-13T11:04:46;22.60;99.90
52267;DHT22;38223;50.940;4.034;2023-07-13T11:07:27;22.80;99.90
52267;DHT22;38223;50.940;4.034;2023-07-13T11:10:04;23.00;99.90
52267;DHT22;38223;50.940;4.034;2023-07-13T11:12:54;23.00;99.90
52267;DHT22;38223;50.940;4.034;2023-07-13T11:15:39;23.00;99.90
52267;DHT22;38223;50.940;4.034;2023-07-13T11:18:10;23.00;99.90
52267;DHT22;38223;50.940;4.034;2023-07-13T11:20:39;23.10;99.90
52267;DHT22;38223;50.940;4.034;2023-07-13T11:23:19;23.40;99.90
52267;DHT22;38223;50.940;4.034;2023-07-13T11:25:49;23.50;99.90
52267;DHT22;38223;50.940;4.034;2023-07-13T11:28:21;23.40;99.90
52267;DHT22;38223;50.940;4.034;2023-07-13T11:31:00;23.50;99.90
52267;DHT22;38223;50.940;4.034;2023-07-13T11:33:51;23.40;99.90
52267;DHT22;38223;50.940;4.034;2023-07-13T11:36:24;22.90;99.90
52267;DHT22;38223;50.940;4.034;2023-07-13T11:39:19;21.50;99.90
52267;DHT22;38223;50.940;4.034;2023-07-13T11:41:55;20.10;99.90
52267;DHT22;38223;50.940;4.034;2023-07-13T11:44:26;18.70;99.90
52267;DHT22;38223;50.940;4.034;2023-07-13T11:47:08;17.90;99.90
52267;DHT22;38223;50.940;4.034;2023-07-13T11:49:42;17.60;99.90
52267;DHT22;38223;50.940;4.034;2023-07-13T11:52:09;17.40;99.90
52267;DHT22;38223;50.940;4.034;2023-07-13T11:54:54;17.40;99.90
52267;DHT22;38223;50.940;4.034;2023-07-13T11:57:30;17.50;99.90
52267;DHT22;38223;50.940;4.034;2023-07-13T12:00:11;17.60;99.90
52267;DHT22;38223;50.940;4.034;2023-07-13T12:02:45;17.70;99.90
52267;DHT22;38223;50.940;4.034;2023-07-13T12:05:18;17.90;99.90
52267;DHT22;38223;50.940;4.034;2023-07-13T12:07:51;18.10;99.90
52267;DHT22;38223;50.940;4.034;2023-07-13T12:10:28;18.40;99.90
52267;DHT22;38223;50.940;4.034;2023-07-13T12:13:04;18.60;99.90
52267;DHT22;38223;50.940;4.034;2023-07-13T12:15:43;18.80;99.90
52267;DHT22;38223;50.940;4.034;2023-07-13T12:18:24;19.10;99.90
52267;DHT22;38223;50.940;4.034;2023-07-13T12:20:53;19.20;99.90
52267;DHT22;38223;50.940;4.034;2023-07-13T12:26:06;19.50;99.90
52267;DHT22;38223;50.940;4.034;2023-07-13T12:28:38;19.70;99.90
52267;DHT22;38223;50.940;4.034;2023-07-13T12:34:20;20.20;99.90
52267;DHT22;38223;50.940;4.034;2023-07-13T12:39:38;20.50;99.90
52267;DHT22;38223;50.940;4.034;2023-07-13T12:42:24;20.60;99.90
52267;DHT22;38223;50.940;4.034;2023-07-13T12:45:13;20.90;99.90
52267;DHT22;38223;50.940;4.034;2023-07-13T12:47:46;21.00;99.90
52267;DHT22;38223;50.940;4.034;2023-07-13T12:50:23;21.20;99.90
52267;DHT22;38223;50.940;4.034;2023-07-13T12:53:27;21.30;99.90
52267;DHT22;38223;50.940;4.034;2023-07-13T12:55:57;21.40;99.90
52267;DHT22;38223;50.940;4.034;2023-07-13T12:58:35;21.50;99.90
52267;DHT22;38223;50.940;4.034;2023-07-13T13:01:07;21.50;99.90
52267;DHT22;38223;50.940;4.034;2023-07-13T13:03:46;21.50;99.90
52267;DHT22;38223;50.940;4.034;2023-07-13T13:06:25;21.70;99.90
52267;DHT22;38223;50.940;4.034;2023-07-13T13:09:02;21.80;99.90
52267;DHT22;38223;50.940;4.034;2023-07-13T13:11:33;21.80;99.90
52267;DHT22;38223;50.940;4.034;2023-07-13T13:14:08;21.70;99.90
52267;DHT22;38223;50.940;4.034;2023-07-13T13:16:48;21.70;99.90
52267;DHT22;38223;50.940;4.034;2023-07-13T13:19:28;21.80;99.90
52267;DHT22;38223;50.940;4.034;2023-07-13T13:22:04;22.00;99.90
52267;DHT22;38223;50.940;4.034;2023-07-13T13:24:34;22.10;99.90
52267;DHT22;38223;50.940;4.034;2023-07-13T13:27:10;22.00;99.90
52267;DHT22;38223;50.940;4.034;2023-07-13T13:29:41;22.20;99.90
52267;DHT22;38223;50.940;4.034;2023-07-13T13:32:16;22.30;99.90
52267;DHT22;38223;50.940;4.034;2023-07-13T13:34:50;22.40;99.90
52267;DHT22;38223;50.940;4.034;2023-07-13T13:37:27;22.50;99.90
52267;DHT22;38223;50.940;4.034;2023-07-13T13:40:01;22.50;99.90
52267;DHT22;38223;50.940;4.034;2023-07-13T13:42:48;22.30;99.90
52267;DHT22;38223;50.940;4.034;2023-07-13T13:45:23;22.30;99.90
52267;DHT22;38223;50.940;4.034;2023-07-13T13:47:53;22.30;99.90
52267;DHT22;38223;50.940;4.034;2023-07-13T13:50:25;22.50;99.90
52267;DHT22;38223;50.940;4.034;2023-07-13T13:53:00;22.50;99.90
52267;DHT22;38223;50.940;4.034;2023-07-13T13:55:46;22.30;99.90
52267;DHT22;38223;50.940;4.034;2023-07-13T13:58:21;22.00;99.90
52267;DHT22;38223;50.940;4.034;2023-07-13T14:00:50;22.10;99.90
52267;DHT22;38223;50.940;4.034;2023-07-13T14:03:22;22.40;99.90
52267;DHT22;38223;50.940;4.034;2023-07-13T14:05:55;22.20;99.90
52267;DHT22;38223;50.940;4.034;2023-07-13T14:08:24;22.30;99.90
52267;DHT22;38223;50.940;4.034;2023-07-13T14:10:58;22.30;99.90
52267;DHT22;38223;50.940;4.034;2023-07-13T14:13:37;22.60;99.90
52267;DHT22;38223;50.940;4.034;2023-07-13T14:16:15;22.80;99.90
52267;DHT22;38223;50.940;4.034;2023-07-13T14:18:48;23.30;99.90
52267;DHT22;38223;50.940;4.034;2023-07-13T14:21:21;23.70;99.90
52267;DHT22;38223;50.940;4.034;2023-07-13T14:26:43;23.90;99.90
52267;DHT22;38223;50.940;4.034;2023-07-13T14:29:20;24.20;99.90
52267;DHT22;38223;50.940;4.034;2023-07-13T14:31:56;24.50;99.90
52267;DHT22;38223;50.940;4.034;2023-07-13T14:34:25;24.60;99.90
52267;DHT22;38223;50.940;4.034;2023-07-13T14:36:59;24.50;99.90
52267;DHT22;38223;50.940;4.034;2023-07-13T14:39:31;24.50;99.90
52267;DHT22;38223;50.940;4.034;2023-07-13T14:42:04;24.60;99.90
52267;DHT22;38223;50.940;4.034;2023-07-13T14:44:37;24.60;99.90
52267;DHT22;38223;50.940;4.034;2023-07-13T14:47:09;24.60;99.40
52267;DHT22;38223;50.940;4.034;2023-07-13T14:49:45;24.40;99.70
52267;DHT22;38223;50.940;4.034;2023-07-13T14:52:18;24.10;99.90
52267;DHT22;38223;50.940;4.034;2023-07-13T14:54:50;23.90;99.90
52267;DHT22;38223;50.940;4.034;2023-07-13T14:57:23;23.80;99.90
52267;DHT22;38223;50.940;4.034;2023-07-13T14:59:52;23.90;99.90
52267;DHT22;38223;50.940;4.034;2023-07-13T15:02:31;23.90;99.90
52267;DHT22;38223;50.940;4.034;2023-07-13T15:05:12;24.00;99.90
52267;DHT22;38223;50.940;4.034;2023-07-13T15:07:42;24.10;99.90
52267;DHT22;38223;50.940;4.034;2023-07-13T15:10:18;24.20;99.70
52267;DHT22;38223;50.940;4.034;2023-07-13T15:12:51;24.20;99.60
52267;DHT22;38223;50.940;4.034;2023-07-13T15:15:23;24.30;98.80
52267;DHT22;38223;50.940;4.034;2023-07-13T15:17:59;24.20;98.10
52267;DHT22;38223;50.940;4.034;2023-07-13T15:20:33;24.30;98.30
52267;DHT22;38223;50.940;4.034;2023-07-13T15:23:09;24.50;97.40
52267;DHT22;38223;50.940;4.034;2023-07-13T15:25:39;24.60;97.50
52267;DHT22;38223;50.940;4.034;2023-07-13T15:28:13;24.70;97.20
52267;DHT22;38223;50.940;4.034;2023-07-13T15:30:48;24.80;96.90
52267;DHT22;38223;50.940;4.034;2023-07-13T15:33:29;24.80;96.70
52267;DHT22;38223;50.940;4.034;2023-07-13T15:35:59;24.60;96.50
52267;DHT22;38223;50.940;4.034;2023-07-13T15:38:34;24.40;96.10
52267;DHT22;38223;50.940;4.034;2023-07-13T15:41:16;24.30;96.00
52267;DHT22;38223;50.940;4.034;2023-07-13T15:43:39;24.30;96.10
52267;DHT22;38223;50.940;4.034;2023-07-13T15:46:12;24.20;97.30
52267;DHT22;38223;50.940;4.034;2023-07-13T15:48:42;24.20;96.40
52267;DHT22;38223;50.940;4.034;2023-07-13T15:51:25;24.10;97.10
52267;DHT22;38223;50.940;4.034;2023-07-13T15:53:45;24.10;97.10
52267;DHT22;38223;50.940;4.034;2023-07-13T15:56:24;24.10;97.50
52267;DHT22;38223;50.940;4.034;2023-07-13T15:58:55;24.20;96.90
52267;DHT22;38223;50.940;4.034;2023-07-13T16:01:31;24.30;96.50
52267;DHT22;38223;50.940;4.034;2023-07-13T16:04:02;24.20;96.70
52267;DHT22;38223;50.940;4.034;2023-07-13T16:06:36;24.20;96.60
52267;DHT22;38223;50.940;4.034;2023-07-13T16:09:09;24.00;97.40
52267;DHT22;38223;50.940;4.034;2023-07-13T16:11:41;23.90;96.80
52267;DHT22;38223;50.940;4.034;2023-07-13T16:14:14;23.90;96.80
52267;DHT22;38223;50.940;4.034;2023-07-13T16:16:46;24.00;97.00
52267;DHT22;38223;50.940;4.034;2023-07-13T16:19:16;24.00;97.30
52267;DHT22;38223;50.940;4.034;2023-07-13T16:21:50;24.20;97.20
52267;DHT22;38223;50.940;4.034;2023-07-13T16:24:44;24.50;96.20
52267;DHT22;38223;50.940;4.034;2023-07-13T16:27:21;24.60;94.60
52267;DHT22;38223;50.940;4.034;2023-07-13T16:29:52;24.60;95.10
52267;DHT22;38223;50.940;4.034;2023-07-13T16:32:26;24.40;94.50
52267;DHT22;38223;50.940;4.034;2023-07-13T16:34:55;24.30;94.80
52267;DHT22;38223;50.940;4.034;2023-07-13T16:37:32;24.20;95.50
52267;DHT22;38223;50.940;4.034;2023-07-13T16:40:05;24.30;95.20
52267;DHT22;38223;50.940;4.034;2023-07-13T16:42:37;24.40;94.30
52267;DHT22;38223;50.940;4.034;2023-07-13T16:45:10;24.30;94.30